createdAt,value
2022-08-19T00:07:36.368Z,100
2022-08-19T00:17:37.542Z,100
2022-08-19T00:27:37.812Z,100
2022-08-19T00:37:38.289Z,100
2022-08-19T00:47:38.751Z,100
2022-08-19T00:57:39.060Z,100
2022-08-19T01:07:39.268Z,100
2022-08-19T01:17:39.575Z,100
2022-08-19T01:47:41.501Z,100
2022-08-19T01:57:42.495Z,100
2022-08-19T02:57:44.219Z,100
2022-08-19T03:07:44.855Z,100
2022-08-19T03:17:45.347Z,100
2022-08-19T03:27:46.302Z,100
2022-08-19T03:37:46.858Z,100
2022-08-19T03:47:47.485Z,100
2022-08-19T03:57:48.492Z,100
2022-08-19T04:07:48.756Z,100
2022-08-19T04:17:49.066Z,100
2022-08-19T04:27:49.334Z,100
2022-08-19T04:37:50.070Z,100
2022-08-19T04:47:52.270Z,100
2022-08-19T04:57:51.457Z,100
2022-08-19T05:07:51.531Z,100
2022-08-19T05:17:51.838Z,100
2022-08-19T05:27:52.434Z,100
2022-08-19T05:37:54.941Z,100
2022-08-19T05:47:53.882Z,100
2022-08-19T05:57:53.953Z,100
2022-08-19T06:07:54.566Z,100
2022-08-19T06:17:55.259Z,100
2022-08-19T06:37:56.601Z,100
2022-08-19T06:47:56.907Z,100
2022-08-19T06:57:56.878Z,98
2022-08-19T07:07:57.603Z,97
2022-08-19T07:17:57.966Z,93
2022-08-19T07:27:59.043Z,93
2022-08-19T07:37:59.146Z,93
2022-08-19T07:47:59.237Z,92
2022-08-19T07:57:59.408Z,93
2022-08-19T08:07:59.844Z,90
2022-08-19T08:18:00.756Z,90
2022-08-19T08:28:01.349Z,89
2022-08-19T08:38:02.058Z,87
2022-08-19T08:48:02.891Z,86
2022-08-19T08:58:03.415Z,84
2022-08-19T09:18:15.224Z,83
2022-08-19T09:28:12.717Z,82
2022-08-19T09:38:11.598Z,80
2022-08-19T09:48:12.142Z,80
2022-08-19T12:08:21.255Z,69
2022-08-19T13:28:28.962Z,63
2022-08-19T13:48:26.660Z,66
2022-08-19T13:58:27.394Z,66
2022-08-19T14:38:31.526Z,61
2022-08-19T14:48:29.812Z,63
2022-08-19T15:28:31.731Z,62
2022-08-19T15:38:35.428Z,63
2022-08-19T15:48:33.165Z,64
2022-08-19T15:58:33.500Z,65
2022-08-19T16:08:48.707Z,66
2022-08-19T16:18:34.047Z,65
2022-08-19T16:28:34.362Z,67
2022-08-19T16:38:34.522Z,66
2022-08-19T16:48:35.076Z,65
2022-08-19T17:08:35.617Z,64
2022-08-19T17:18:35.803Z,65
2022-08-19T17:28:35.935Z,66
2022-08-19T17:38:36.331Z,67
2022-08-19T17:48:36.389Z,68
2022-08-19T18:08:37.304Z,69
2022-08-19T18:48:39.107Z,72
2022-08-19T19:08:40.228Z,77
2022-08-19T19:48:41.423Z,86
2022-08-19T19:58:41.656Z,88
2022-08-19T20:08:42.428Z,89
2022-08-19T21:08:46.192Z,92
2022-08-19T21:18:46.865Z,93
2022-08-19T21:28:47.125Z,94
2022-08-19T21:38:47.590Z,94
2022-08-19T21:48:48.343Z,94
2022-08-19T21:58:49.089Z,94
2022-08-19T22:08:49.953Z,95
2022-08-19T22:18:50.908Z,95
2022-08-19T22:38:51.900Z,94
2022-08-19T22:58:53.453Z,96
2022-08-19T23:08:54.174Z,96
2022-08-19T23:18:56.094Z,100
2022-08-19T23:38:56.547Z,100
2022-08-19T23:48:57.298Z,100
